Arta, Spain
Current Conditions -  °F | °C
As of 7:00 PM on Friday 24 Oct 2014 (Local Time) from LEPA Reporting Station
Clear Clear  
Wind Chill: 73°   Ceiling: Unl
Heat Index: 73°   Visibility: 6mi
Dew Point: 59°   Wind: 7mph
Humidity: 61%   Direction: 210°SSW
Pressure: 30"   Gusts: NA
Location:  39.69°N, 3.35°E
Report Text: LEPA 241700Z 21006KT CAVOK 23/15 Q1016 NOSIG
Loading
Personal Weather Stations






























Interactive Weather Map
Tropical Storm Tracking
New forecast layout! Learn more

10-Day Weather Forecast

Advertisements
Track Severe Weather on mobile